createdAt,value
2023-08-08T00:01:05.373Z,0.98
2023-08-08T00:03:38.578Z,1.50
2023-08-08T00:06:09.843Z,1.52
2023-08-08T00:08:38.837Z,1.25
2023-08-08T00:11:07.445Z,1.23
2023-08-08T00:13:38.573Z,1.27
2023-08-08T00:16:10.154Z,1.30
2023-08-08T00:18:39.106Z,1.10
2023-08-08T00:21:10.911Z,1.30
2023-08-08T00:23:42.312Z,1.20
2023-08-08T00:26:11.041Z,1.70
2023-08-08T00:28:40.174Z,1.20
2023-08-08T00:31:09.887Z,1.27
2023-08-08T00:33:46.437Z,1.25
2023-08-08T00:36:15.047Z,2.58
2023-08-08T00:38:47.142Z,1.15
2023-08-08T00:41:17.781Z,1.20
2023-08-08T00:43:47.386Z,0.93
2023-08-08T00:46:23.456Z,1.30
2023-08-08T00:48:54.699Z,1.17
2023-08-08T00:51:23.972Z,1.67
2023-08-08T00:53:52.882Z,1.65
2023-08-08T00:56:25.167Z,1.85
2023-08-08T00:58:53.818Z,1.85
2023-08-08T01:01:23.257Z,1.80
2023-08-08T01:03:53.317Z,1.23
2023-08-08T01:06:26.070Z,1.60
2023-08-08T01:09:02.181Z,1.10
2023-08-08T01:11:35.047Z,1.38
2023-08-08T01:14:04.375Z,1.30
2023-08-08T01:16:33.022Z,1.35
2023-08-08T01:19:02.134Z,1.60
2023-08-08T01:21:31.889Z,1.40
2023-08-08T01:24:14.358Z,1.50
2023-08-08T01:26:43.029Z,1.30
2023-08-08T01:29:13.867Z,1.73
2023-08-08T01:31:43.012Z,1.35
2023-08-08T01:34:11.822Z,1.67
2023-08-08T01:36:58.370Z,1.70
2023-08-08T01:39:31.892Z,1.50
2023-08-08T01:42:01.803Z,1.73
2023-08-08T01:44:32.826Z,1.92
2023-08-08T01:47:03.058Z,1.60
2023-08-08T01:49:34.292Z,1.80
2023-08-08T01:52:06.603Z,2.00
2023-08-08T01:54:39.673Z,2.00
2023-08-08T01:57:08.181Z,1.50
2023-08-08T01:59:37.659Z,1.67
2023-08-08T02:02:07.745Z,2.40
2023-08-08T02:04:37.971Z,1.50
2023-08-08T02:07:07.838Z,1.83
2023-08-08T02:09:40.908Z,1.73
2023-08-08T02:12:11.080Z,1.80
2023-08-08T02:14:43.412Z,1.70
2023-08-08T02:17:17.274Z,1.60
2023-08-08T02:19:45.918Z,1.70
2023-08-08T02:22:17.073Z,1.88
2023-08-08T02:24:45.614Z,1.70
2023-08-08T02:27:15.398Z,1.52
2023-08-08T02:29:43.853Z,1.80
2023-08-08T02:32:17.372Z,1.70
2023-08-08T02:34:46.477Z,1.80
2023-08-08T02:37:17.997Z,3.70
2023-08-08T02:39:47.020Z,1.58
2023-08-08T02:42:18.054Z,1.80
2023-08-08T02:44:48.843Z,1.75
2023-08-08T02:47:18.178Z,1.75
2023-08-08T02:49:47.837Z,1.50
2023-08-08T02:52:19.772Z,1.95
2023-08-08T02:54:48.575Z,1.67
2023-08-08T02:57:20.797Z,1.73
2023-08-08T02:59:49.684Z,1.75
2023-08-08T03:02:18.930Z,1.60
2023-08-08T03:04:47.798Z,1.50
2023-08-08T03:07:18.888Z,1.90
2023-08-08T03:09:47.584Z,1.60
2023-08-08T03:12:16.251Z,2.28
2023-08-08T03:14:45.220Z,1.92
2023-08-08T03:17:14.990Z,1.85
2023-08-08T03:19:44.541Z,1.70
2023-08-08T03:22:13.081Z,1.75
2023-08-08T03:24:44.519Z,1.70
2023-08-08T03:27:17.453Z,1.70
2023-08-08T03:29:47.998Z,1.93
2023-08-08T03:32:18.782Z,1.60
2023-08-08T03:34:47.779Z,1.98
2023-08-08T03:37:17.060Z,1.80
2023-08-08T03:39:46.275Z,1.77
2023-08-08T03:42:17.111Z,1.70
2023-08-08T03:44:48.485Z,2.00
2023-08-08T03:47:20.379Z,2.00
2023-08-08T03:49:49.497Z,1.80
2023-08-08T03:52:19.965Z,3.08
2023-08-08T03:54:48.798Z,2.15
2023-08-08T03:57:17.626Z,2.55
2023-08-08T03:59:46.961Z,2.20
2023-08-08T04:02:17.202Z,2.08
2023-08-08T04:04:45.667Z,2.03
2023-08-08T04:07:15.105Z,2.22
2023-08-08T04:09:44.607Z,2.05
2023-08-08T04:12:12.995Z,2.45
2023-08-08T04:14:41.645Z,2.33
2023-08-08T04:17:10.262Z,2.63
2023-08-08T04:19:40.350Z,2.05
2023-08-08T04:22:08.746Z,2.22
2023-08-08T04:24:37.682Z,2.25
2023-08-08T04:27:06.285Z,2.55
2023-08-08T04:29:36.751Z,2.35
2023-08-08T04:32:05.655Z,2.13
2023-08-08T04:34:34.690Z,2.28
2023-08-08T04:37:03.296Z,2.25
2023-08-08T04:39:32.841Z,2.92
2023-08-08T04:42:04.722Z,2.45
2023-08-08T04:44:35.003Z,2.67
2023-08-08T04:47:03.571Z,2.53
2023-08-08T04:49:32.591Z,2.70
2023-08-08T04:52:03.590Z,3.17
2023-08-08T04:54:32.830Z,2.80
2023-08-08T04:57:03.914Z,3.22
2023-08-08T04:59:33.503Z,2.90
2023-08-08T05:02:03.123Z,3.60
2023-08-08T05:04:34.725Z,4.10
2023-08-08T05:07:04.093Z,3.63
2023-08-08T05:09:32.870Z,3.35
2023-08-08T05:12:01.881Z,3.63
2023-08-08T05:14:32.102Z,4.75
2023-08-08T05:17:04.732Z,3.25
2023-08-08T05:19:36.389Z,3.70
2023-08-08T05:22:05.160Z,3.75
2023-08-08T05:24:34.479Z,4.05
2023-08-08T05:27:06.123Z,3.53
2023-08-08T05:29:39.069Z,3.90
2023-08-08T05:32:08.689Z,4.20
2023-08-08T05:34:38.561Z,3.40
2023-08-08T05:37:16.562Z,3.70
2023-08-08T05:39:46.326Z,3.92
2023-08-08T05:42:14.690Z,4.63
2023-08-08T05:44:43.999Z,4.90
2023-08-08T05:47:14.943Z,4.80
2023-08-08T05:49:43.941Z,4.22
2023-08-08T05:52:12.568Z,4.32
2023-08-08T05:54:43.684Z,4.28
2023-08-08T05:57:12.681Z,4.72
2023-08-08T05:59:42.357Z,4.50
2023-08-08T06:02:12.243Z,4.50
2023-08-08T06:04:40.965Z,4.53
2023-08-08T06:07:10.219Z,4.88
2023-08-08T06:09:39.730Z,5.65
2023-08-08T06:12:08.708Z,5.45
2023-08-08T06:14:40.190Z,5.85
2023-08-08T06:17:11.613Z,6.22
2023-08-08T06:19:43.693Z,5.38
2023-08-08T06:22:12.795Z,6.22
2023-08-08T06:24:44.860Z,5.95
2023-08-08T06:27:15.443Z,6.55
2023-08-08T06:29:44.156Z,6.80
2023-08-08T06:32:12.658Z,7.30
2023-08-08T06:34:40.893Z,6.78
2023-08-08T06:37:10.967Z,6.93
2023-08-08T06:39:41.196Z,7.45
2023-08-08T06:42:10.330Z,7.90
2023-08-08T06:44:49.981Z,7.72
2023-08-08T06:47:18.473Z,7.75
2023-08-08T06:49:47.370Z,7.53
2023-08-08T06:52:15.863Z,8.18
2023-08-08T06:54:47.210Z,7.07
2023-08-08T06:57:16.077Z,6.50
2023-08-08T06:59:51.613Z,6.45
2023-08-08T07:02:21.704Z,6.43
2023-08-08T07:04:53.059Z,6.07
2023-08-08T07:07:21.700Z,7.10
2023-08-08T07:09:55.165Z,6.78
2023-08-08T07:12:24.493Z,6.65
2023-08-08T07:14:53.121Z,6.78
2023-08-08T07:17:22.581Z,6.22
2023-08-08T07:19:51.965Z,6.78
2023-08-08T07:22:20.771Z,6.03
2023-08-08T07:24:51.784Z,6.10
2023-08-08T07:27:23.576Z,5.93
2023-08-08T07:29:54.591Z,6.57
2023-08-08T07:32:24.444Z,5.40
2023-08-08T07:34:55.613Z,5.60
2023-08-08T07:37:24.688Z,5.60
2023-08-08T07:39:53.514Z,5.32
2023-08-08T07:42:22.580Z,5.75
2023-08-08T07:44:51.169Z,6.45
2023-08-08T07:47:19.615Z,4.82
2023-08-08T07:49:49.327Z,4.63
2023-08-08T07:52:18.301Z,4.38
2023-08-08T07:54:46.676Z,4.35
2023-08-08T07:57:15.246Z,3.95
2023-08-08T07:59:44.264Z,3.92
2023-08-08T08:02:13.064Z,5.82
2023-08-08T08:04:42.294Z,4.10
2023-08-08T08:07:11.152Z,3.78
2023-08-08T08:09:43.346Z,3.45
2023-08-08T08:12:12.063Z,3.20
2023-08-08T08:14:40.919Z,3.35
2023-08-08T08:17:16.992Z,3.03
2023-08-08T08:19:49.018Z,3.40
2023-08-08T08:22:17.422Z,3.35
2023-08-08T08:24:47.243Z,2.53
2023-08-08T08:27:15.981Z,2.78
2023-08-08T08:29:44.838Z,2.55
2023-08-08T08:32:13.893Z,2.40
2023-08-08T08:34:43.358Z,2.40
2023-08-08T08:37:11.848Z,2.40
2023-08-08T08:39:40.525Z,2.50
2023-08-08T08:42:13.087Z,2.45
2023-08-08T08:44:42.860Z,2.55
2023-08-08T08:47:15.319Z,3.33
2023-08-08T08:49:44.426Z,2.28
2023-08-08T08:52:15.034Z,2.60
2023-08-08T08:54:44.293Z,2.70
2023-08-08T08:57:18.486Z,3.10
2023-08-08T08:59:47.933Z,2.53
2023-08-08T09:02:16.738Z,2.85
2023-08-08T09:04:47.859Z,2.30
2023-08-08T09:07:17.049Z,2.28
2023-08-08T09:09:45.882Z,2.92
2023-08-08T09:12:15.578Z,2.47
2023-08-08T09:14:47.316Z,2.50
2023-08-08T09:17:18.475Z,2.40
2023-08-08T09:19:49.896Z,2.40
2023-08-08T09:22:21.390Z,2.28
2023-08-08T09:24:50.313Z,2.58
2023-08-08T09:27:20.226Z,2.40
2023-08-08T09:29:48.904Z,2.50
2023-08-08T09:32:19.124Z,2.20
2023-08-08T09:34:48.502Z,2.88
2023-08-08T09:37:22.484Z,2.25
2023-08-08T09:40:04.553Z,2.25
2023-08-08T09:42:38.383Z,2.17
2023-08-08T09:45:07.475Z,2.53
2023-08-08T09:47:41.834Z,2.85
2023-08-08T09:50:12.960Z,1.92
2023-08-08T09:52:45.337Z,2.13
2023-08-08T09:55:14.181Z,2.88
2023-08-08T09:57:45.141Z,1.75
2023-08-08T10:00:17.531Z,2.53
2023-08-08T10:03:06.055Z,1.80
2023-08-08T10:05:37.779Z,1.95
2023-08-08T10:08:07.635Z,2.42
2023-08-08T10:10:38.228Z,1.55
2023-08-08T10:13:08.608Z,1.80
2023-08-08T10:15:40.331Z,1.63
2023-08-08T10:18:08.931Z,1.75
2023-08-08T10:20:39.779Z,1.25
2023-08-08T10:23:10.727Z,1.55
2023-08-08T10:25:39.028Z,1.65
2023-08-08T10:28:25.348Z,1.30
2023-08-08T10:31:00.791Z,1.77
2023-08-08T10:33:41.512Z,1.70
2023-08-08T10:36:10.801Z,1.67
2023-08-08T10:38:51.115Z,1.63
2023-08-08T10:41:24.499Z,1.45
2023-08-08T10:43:58.908Z,1.00
2023-08-08T10:46:34.932Z,1.20
2023-08-08T10:49:03.926Z,1.35
2023-08-08T10:51:39.161Z,1.25
2023-08-08T10:54:31.909Z,1.17
2023-08-08T10:57:00.665Z,1.77
2023-08-08T10:59:40.802Z,1.77
2023-08-08T11:02:09.837Z,1.23
2023-08-08T11:04:39.229Z,2.50
2023-08-08T11:07:09.206Z,1.60
2023-08-08T11:09:38.652Z,1.35
2023-08-08T11:12:20.150Z,1.70
2023-08-08T11:14:48.873Z,1.67
2023-08-08T11:17:18.073Z,2.00
2023-08-08T11:19:47.465Z,2.97
2023-08-08T11:22:16.061Z,2.72
2023-08-08T11:24:46.723Z,2.13
2023-08-08T11:30:05.709Z,1.92
2023-08-08T11:32:40.636Z,2.10
2023-08-08T11:35:23.910Z,1.88
2023-08-08T11:37:57.715Z,2.33
2023-08-08T11:40:32.455Z,1.83
2023-08-08T11:45:33.703Z,1.40
2023-08-08T11:48:02.336Z,1.25
2023-08-08T11:53:08.294Z,1.65
2023-08-08T11:55:40.269Z,1.52
2023-08-08T11:58:15.685Z,1.40
2023-08-08T12:00:48.292Z,2.03
2023-08-08T12:05:58.298Z,1.70
2023-08-08T12:08:34.693Z,1.40
2023-08-08T12:11:05.277Z,1.20
2023-08-08T12:13:43.846Z,1.30
2023-08-08T12:16:17.088Z,1.33
2023-08-08T12:18:47.120Z,1.70
2023-08-08T12:21:16.817Z,1.30
2023-08-08T12:23:48.007Z,1.25
2023-08-08T12:26:17.550Z,1.45
2023-08-08T12:28:47.601Z,1.92
2023-08-08T12:31:17.074Z,1.88
2023-08-08T12:33:46.724Z,1.73
2023-08-08T12:36:15.593Z,1.63
2023-08-08T12:38:44.319Z,1.35
2023-08-08T12:41:12.777Z,1.75
2023-08-08T12:43:44.049Z,1.70
2023-08-08T12:46:17.313Z,1.75
2023-08-08T12:48:46.260Z,1.67
2023-08-08T12:51:17.195Z,1.52
2023-08-08T12:53:46.417Z,1.73
2023-08-08T12:56:15.015Z,1.40
2023-08-08T12:58:43.585Z,1.70
2023-08-08T13:01:12.319Z,1.40
2023-08-08T13:04:02.874Z,1.50
2023-08-08T13:06:40.535Z,1.23
2023-08-08T13:09:09.279Z,1.40
2023-08-08T13:11:38.073Z,1.20
2023-08-08T13:14:07.591Z,1.40
2023-08-08T13:16:43.370Z,1.60
2023-08-08T13:19:16.396Z,1.48
2023-08-08T13:21:46.058Z,1.70
2023-08-08T13:24:15.950Z,1.38
2023-08-08T13:26:51.430Z,1.40
2023-08-08T13:29:19.954Z,1.45
2023-08-08T13:31:50.518Z,1.08
2023-08-08T13:34:23.520Z,1.13
2023-08-08T13:36:57.190Z,0.90
2023-08-08T13:39:26.302Z,1.30
2023-08-08T13:41:54.752Z,1.00
2023-08-08T13:44:28.562Z,0.77
2023-08-08T13:47:01.613Z,1.30
2023-08-08T13:49:31.550Z,1.17
2023-08-08T13:52:02.754Z,1.20
2023-08-08T13:54:33.243Z,0.90
2023-08-08T13:57:03.553Z,1.05
2023-08-08T13:59:32.338Z,1.10
2023-08-08T14:02:03.674Z,0.93
2023-08-08T14:04:34.844Z,1.10
2023-08-08T14:07:03.518Z,1.10
2023-08-08T14:09:33.801Z,1.25
2023-08-08T14:12:05.363Z,1.10
2023-08-08T14:14:35.529Z,1.45
2023-08-08T14:17:03.893Z,0.90
2023-08-08T14:19:33.558Z,0.75
2023-08-08T14:22:02.557Z,1.00
2023-08-08T14:24:34.477Z,1.17
2023-08-08T14:27:03.616Z,0.90
2023-08-08T14:29:32.791Z,0.93
2023-08-08T14:32:01.826Z,0.93
2023-08-08T14:34:35.097Z,0.97
2023-08-08T14:37:04.742Z,0.85
2023-08-08T14:39:37.689Z,1.10
2023-08-08T14:42:06.620Z,0.70
2023-08-08T14:44:41.834Z,0.93
2023-08-08T14:47:13.321Z,0.80
2023-08-08T14:49:42.053Z,0.98
2023-08-08T14:52:10.898Z,0.90
2023-08-08T14:54:39.335Z,0.77
2023-08-08T14:57:08.655Z,1.00
2023-08-08T14:59:37.159Z,1.42
2023-08-08T15:02:08.892Z,0.68
2023-08-08T15:04:37.721Z,0.80
2023-08-08T15:07:09.023Z,0.85
2023-08-08T15:09:40.897Z,0.60
2023-08-08T15:12:10.465Z,0.40
2023-08-08T15:14:40.185Z,0.50
2023-08-08T15:17:13.629Z,0.60
2023-08-08T15:19:42.805Z,0.50
2023-08-08T15:22:11.300Z,0.75
2023-08-08T15:24:44.661Z,0.50
2023-08-08T15:27:14.172Z,0.40
2023-08-08T15:29:43.434Z,0.50
2023-08-08T15:32:11.920Z,0.30
2023-08-08T15:34:40.467Z,0.60
2023-08-08T15:37:13.352Z,0.50
2023-08-08T15:39:41.888Z,0.28
2023-08-08T15:42:10.462Z,0.50
2023-08-08T15:44:39.283Z,0.50
2023-08-08T15:47:09.571Z,0.57
2023-08-08T15:49:38.319Z,0.60
2023-08-08T15:52:07.415Z,0.77
2023-08-08T15:54:36.187Z,0.45
2023-08-08T15:57:06.431Z,0.57
2023-08-08T15:59:37.933Z,1.20
2023-08-08T16:02:06.577Z,0.55
2023-08-08T16:04:36.240Z,0.45
2023-08-08T16:07:09.236Z,0.47
2023-08-08T16:09:39.915Z,0.52
2023-08-08T16:12:09.407Z,0.43
2023-08-08T16:14:40.350Z,0.70
2023-08-08T16:17:09.142Z,0.40
2023-08-08T16:19:38.751Z,0.55
2023-08-08T16:22:11.013Z,0.60
2023-08-08T16:24:39.972Z,0.40
2023-08-08T16:27:09.145Z,0.55
2023-08-08T16:29:38.576Z,0.60
2023-08-08T16:32:07.300Z,0.73
2023-08-08T16:34:38.020Z,0.50
2023-08-08T16:37:08.453Z,0.73
2023-08-08T16:39:37.517Z,0.77
2023-08-08T16:42:09.536Z,0.47
2023-08-08T16:44:40.175Z,0.80
2023-08-08T16:47:08.805Z,0.70
2023-08-08T16:49:38.346Z,0.68
2023-08-08T16:52:07.291Z,0.50
2023-08-08T16:54:37.116Z,2.58
2023-08-08T16:57:06.889Z,1.10
2023-08-08T16:59:41.522Z,1.20
2023-08-08T17:02:12.559Z,0.60
2023-08-08T17:04:43.672Z,1.13
2023-08-08T17:07:12.282Z,0.60
2023-08-08T17:09:40.853Z,0.77
2023-08-08T17:12:09.744Z,1.45
2023-08-08T17:14:38.814Z,1.08
2023-08-08T17:17:07.952Z,0.73
2023-08-08T17:19:36.674Z,1.02
2023-08-08T17:22:05.803Z,1.00
2023-08-08T17:24:38.169Z,0.77
2023-08-08T17:27:09.663Z,1.20
2023-08-08T17:29:38.327Z,1.20
2023-08-08T17:32:10.310Z,1.38
2023-08-08T17:34:38.983Z,1.20
2023-08-08T17:37:08.231Z,1.30
2023-08-08T17:39:37.144Z,1.50
2023-08-08T17:42:05.706Z,1.50
2023-08-08T17:44:35.820Z,1.73
2023-08-08T17:47:04.471Z,1.75
2023-08-08T17:49:36.092Z,1.48
2023-08-08T17:52:05.050Z,2.33
2023-08-08T17:54:33.636Z,1.73
2023-08-08T17:57:04.296Z,1.83
2023-08-08T17:59:37.862Z,1.75
2023-08-08T18:02:14.287Z,1.60
2023-08-08T18:04:43.243Z,1.70
2023-08-08T18:07:11.776Z,1.70
2023-08-08T18:09:40.425Z,2.00
2023-08-08T18:12:09.151Z,2.05
2023-08-08T18:14:39.799Z,1.70
2023-08-08T18:17:08.459Z,1.80
2023-08-08T18:19:39.864Z,2.05
2023-08-08T18:22:11.454Z,1.83
2023-08-08T18:24:40.465Z,2.80
2023-08-08T18:27:11.516Z,2.60
2023-08-08T18:29:40.706Z,2.28
2023-08-08T18:32:12.740Z,1.80
2023-08-08T18:34:41.490Z,1.95
2023-08-08T18:37:10.108Z,2.47
2023-08-08T18:39:39.033Z,2.17
2023-08-08T18:42:10.453Z,2.80
2023-08-08T18:44:40.116Z,2.20
2023-08-08T18:47:09.434Z,2.45
2023-08-08T18:49:40.773Z,2.45
2023-08-08T18:52:09.037Z,2.10
2023-08-08T18:54:38.351Z,2.47
2023-08-08T18:57:07.026Z,2.88
2023-08-08T18:59:36.429Z,2.58
2023-08-08T19:02:07.838Z,2.50
2023-08-08T19:04:38.690Z,2.80
2023-08-08T19:07:07.086Z,3.08
2023-08-08T19:09:36.834Z,2.30
2023-08-08T19:12:11.129Z,2.30
2023-08-08T19:14:43.288Z,2.70
2023-08-08T19:17:14.117Z,2.60
2023-08-08T19:19:42.927Z,2.40
2023-08-08T19:22:14.524Z,2.00
2023-08-08T19:24:43.160Z,2.17
2023-08-08T19:27:12.035Z,2.28
2023-08-08T19:29:40.846Z,2.17
2023-08-08T19:32:11.456Z,2.08
2023-08-08T19:34:40.561Z,2.30
2023-08-08T19:37:10.459Z,2.42
2023-08-08T19:39:40.174Z,2.25
2023-08-08T19:42:09.476Z,2.25
2023-08-08T19:44:39.677Z,2.17
2023-08-08T19:47:08.158Z,2.90
2023-08-08T19:49:37.054Z,2.45
2023-08-08T19:52:05.713Z,2.53
2023-08-08T19:54:34.345Z,2.63
2023-08-08T19:57:03.092Z,2.78
2023-08-08T19:59:35.453Z,2.88
2023-08-08T20:02:05.854Z,3.33
2023-08-08T20:04:35.345Z,3.20
2023-08-08T20:07:04.302Z,3.25
2023-08-08T20:09:36.800Z,3.67
2023-08-08T20:12:05.783Z,3.55
2023-08-08T20:14:35.155Z,3.50
2023-08-08T20:17:03.915Z,3.70
2023-08-08T20:19:36.632Z,3.80
2023-08-08T20:22:12.293Z,3.28
2023-08-08T20:24:41.362Z,4.40
2023-08-08T20:27:10.651Z,4.55
2023-08-08T20:29:41.684Z,4.70
2023-08-08T20:32:10.160Z,4.80
2023-08-08T20:34:38.891Z,4.70
2023-08-08T20:37:07.721Z,4.63
2023-08-08T20:39:39.300Z,4.32
2023-08-08T20:42:10.356Z,4.35
2023-08-08T20:44:39.938Z,4.43
2023-08-08T20:47:11.729Z,4.75
2023-08-08T20:49:42.921Z,4.43
2023-08-08T20:52:11.615Z,5.45
2023-08-08T20:54:42.178Z,4.63
2023-08-08T20:57:11.390Z,5.03
2023-08-08T20:59:42.215Z,5.32
2023-08-08T21:02:13.802Z,4.85
2023-08-08T21:04:42.342Z,4.43
2023-08-08T21:07:15.823Z,5.05
2023-08-08T21:09:45.446Z,4.78
2023-08-08T21:12:16.332Z,4.22
2023-08-08T21:14:44.612Z,3.95
2023-08-08T21:17:13.920Z,3.75
2023-08-08T21:19:47.397Z,3.95
2023-08-08T21:22:16.069Z,4.10
2023-08-08T21:24:48.135Z,3.75
2023-08-08T21:27:16.712Z,3.63
2023-08-08T21:29:47.390Z,3.92
2023-08-08T21:32:18.432Z,3.45
2023-08-08T21:34:47.292Z,3.80
2023-08-08T21:37:16.118Z,3.38
2023-08-08T21:39:45.349Z,3.70
2023-08-08T21:42:18.529Z,3.15
2023-08-08T21:44:49.488Z,3.33
2023-08-08T21:47:18.994Z,2.90
2023-08-08T21:49:48.046Z,2.85
2023-08-08T21:52:18.914Z,3.13
2023-08-08T21:54:47.785Z,2.80
2023-08-08T21:57:16.351Z,2.72
2023-08-08T21:59:44.773Z,2.78
2023-08-08T22:02:13.222Z,2.63
2023-08-08T22:04:43.232Z,2.90
2023-08-08T22:07:11.702Z,2.33
2023-08-08T22:09:40.458Z,2.20
2023-08-08T22:12:09.388Z,2.22
2023-08-08T22:14:38.117Z,1.80
2023-08-08T22:17:07.366Z,2.20
2023-08-08T22:19:36.171Z,2.25
2023-08-08T22:22:05.733Z,2.47
2023-08-08T22:24:34.398Z,1.98
2023-08-08T22:27:07.510Z,2.13
2023-08-08T22:29:37.705Z,1.92
2023-08-08T22:32:07.059Z,2.15
2023-08-08T22:34:35.746Z,2.00
2023-08-08T22:37:04.953Z,1.98
2023-08-08T22:39:36.111Z,2.05
2023-08-08T22:42:04.505Z,2.17
2023-08-08T22:44:34.798Z,2.03
2023-08-08T22:47:04.121Z,1.80
2023-08-08T22:49:36.170Z,2.03
2023-08-08T22:52:04.938Z,2.08
2023-08-08T22:54:36.464Z,2.05
2023-08-08T22:57:05.455Z,2.60
2023-08-08T22:59:35.234Z,2.00
2023-08-08T23:02:04.449Z,2.53
2023-08-08T23:04:33.425Z,2.22
2023-08-08T23:07:02.434Z,2.25
2023-08-08T23:09:32.301Z,2.42
2023-08-08T23:12:01.015Z,3.20
2023-08-08T23:14:34.734Z,2.63
2023-08-08T23:17:09.953Z,2.85
2023-08-08T23:19:39.321Z,2.97
2023-08-08T23:22:07.969Z,2.90
2023-08-08T23:24:36.475Z,2.30
2023-08-08T23:27:06.370Z,3.17
2023-08-08T23:29:37.927Z,2.85
2023-08-08T23:32:06.471Z,2.72
2023-08-08T23:34:35.620Z,2.90
2023-08-08T23:37:06.330Z,2.63
2023-08-08T23:39:39.437Z,3.38
2023-08-08T23:42:08.033Z,3.33
2023-08-08T23:44:37.689Z,2.85
2023-08-08T23:47:06.616Z,3.10
2023-08-08T23:49:35.543Z,3.38
2023-08-08T23:52:04.404Z,3.50
2023-08-08T23:54:34.296Z,3.97
2023-08-08T23:57:05.216Z,3.08
2023-08-08T23:59:34.665Z,3.97
